Wetterdaten: aktuell Sonntag, 22.09.2019 01:13
Datum Zeit Temp. A. Feuchte A. Luftdruck Regen Wind Richtung Richtung Taupunkt Windchill Windben
22.09.2019 01:13 6,7 C 91 % 1016,8 hPa 0,0 l/m 0,0 km/h (0 Bft) N 0 5,3 C 6,7 C 0,0 km/h (0 Bft)
22.09.2019 00:13 6,8 C 89 % 1017,0 hPa 0,0 l/m 0,0 km/h (0 Bft) N 0 5,1 C 6,8 C 0,0 km/h (0 Bft)
21.09.2019 23:13 7,4 C 91 % 1017,5 hPa 0,0 l/m 0,0 km/h (0 Bft) N 0 6,0 C 7,4 C 0,0 km/h (0 Bft)
21.09.2019 22:13 7,8 C 90 % 1018,2 hPa 0,0 l/m 0,0 km/h (0 Bft) N 0 6,3 C 7,8 C 0,0 km/h (0 Bft)
21.09.2019 21:13 8,7 C 89 % 1018,7 hPa 0,0 l/m 0,0 km/h (0 Bft) N 0 7,0 C 8,7 C 0,0 km/h (0 Bft)
21.09.2019 20:13 10,3 C 85 % 1018,9 hPa 0,0 l/m 0,0 km/h (0 Bft) N 0 7,9 C 10,3 C 0,0 km/h (0 Bft)
21.09.2019 19:13 12,1 C 81 % 1019,0 hPa 0,0 l/m 0,0 km/h (0 Bft) N 0 8,9 C 12,1 C 0,0 km/h (0 Bft)
21.09.2019 18:13 15,8 C 70 % 1019,4 hPa 0,0 l/m 0,0 km/h (0 Bft) N 0 10,3 C 15,8 C 0,0 km/h (0 Bft)
21.09.2019 17:13 18,7 C 56 % 1019,7 hPa 0,0 l/m 3,2 km/h (1 Bft) O-SO 112 9,7 C 18,7 C 6,4 km/h (2 Bft)
21.09.2019 16:13 19,1 C 52 % 1020,3 hPa 0,0 l/m 4,8 km/h (1 Bft) O-NO 67 9,0 C 19,1 C 9,7 km/h (2 Bft)
21.09.2019 15:13 19,1 C 53 % 1021,0 hPa 0,0 l/m 6,4 km/h (2 Bft) O-SO 112 9,3 C 19,1 C 11,3 km/h (2 Bft)
21.09.2019 14:13 18,1 C 55 % 1022,0 hPa 0,0 l/m 8,0 km/h (2 Bft) NO 45 8,9 C 17,4 C 19,3 km/h (3 Bft)
21.09.2019 13:13 16,9 C 60 % 1022,6 hPa 0,0 l/m 6,4 km/h (2 Bft) NO 45 9,1 C 16,9 C 12,9 km/h (3 Bft)
21.09.2019 12:13 15,8 C 63 % 1023,1 hPa 0,0 l/m 12,9 km/h (3 Bft) O-SO 112 8,8 C 12,9 C 16,1 km/h (3 Bft)
21.09.2019 11:13 13,9 C 68 % 1023,8 hPa 0,0 l/m 3,2 km/h (1 Bft) O-SO 112 8,1 C 13,9 C 8,0 km/h (2 Bft)
21.09.2019 10:13 11,7 C 70 % 1024,3 hPa 0,0 l/m 6,4 km/h (2 Bft) O-NO 67 6,4 C 11,7 C 9,7 km/h (2 Bft)
21.09.2019 09:13 9,7 C 75 % 1024,3 hPa 0,0 l/m 4,8 km/h (1 Bft) NO 45 5,5 C 9,7 C 8,0 km/h (2 Bft)
21.09.2019 08:13 7,6 C 79 % 1024,3 hPa 0,0 l/m 3,2 km/h (1 Bft) O-SO 112 4,2 C 7,6 C 3,2 km/h (1 Bft)
21.09.2019 07:13 4,4 C 87 % 1024,2 hPa 0,0 l/m 0,0 km/h (0 Bft) N 0 2,4 C 4,4 C 1,6 km/h (1 Bft)
21.09.2019 06:13 3,7 C 87 % 1024,4 hPa 0,0 l/m 0,0 km/h (0 Bft) NO 45 1,7 C 3,7 C 1,6 km/h (1 Bft)
21.09.2019 05:13 3,6 C 87 % 1024,3 hPa 0,0 l/m 0,0 km/h (0 Bft) O-NO 67 1,6 C 3,6 C 1,6 km/h (1 Bft)
21.09.2019 04:13 3,2 C 87 % 1024,7 hPa 0,0 l/m 0,0 km/h (0 Bft) NO 45 1,2 C 3,2 C 1,6 km/h (1 Bft)
21.09.2019 03:13 3,7 C 85 % 1025,3 hPa 0,0 l/m 0,0 km/h (0 Bft) N 0 1,4 C 3,7 C 1,6 km/h (1 Bft)
21.09.2019 02:13 3,8 C 87 % 1026,1 hPa 0,0 l/m 0,0 km/h (0 Bft) N 0 1,8 C 3,8 C 1,6 km/h (1 Bft)
21.09.2019 02:00 3,6 C 87 % 1026,2 hPa 0,0 l/m 0,0 km/h (0 Bft) N 0 1,6 C 3,6 C 0,0 km/h (0 Bft)
_ Min-Zeit 03:44 15:08 00:36 - 02:00 - - 03:44 03:44 02:00
Minimum _ 1,9 C 51 % 1016,8 hPa - 0,0 km/h (0 Bft) - - -0,0 C 1,9 C 0,0 km/h (0 Bft)
_ Max-Zeit 15:40 23:09 02:00 02:00 12:13 - - 17:35 15:41 14:12
Maximum _ 19,3 C 91 % 1026,2 hPa 0,0 l/m 12,9 km/h
O-SO (3 Bft)
- - 11,7 C 19,3 C 19,3 km/h
N (3 Bft)
Durchschnitt _ 9,9 C 77 % 1022,1 hPa #0,0 l/m 2,1 km/h (1 Bft) NO - 5,8 C 9,9 C 3,9 km/h (1 Bft)